Flight Track Log - Related Links

Times and Time Zones

All times are in EDT time to prevent confusion due to time zone crossing. See the SWA718 flight status page for this flight to view local times or setup timezone preferences in your user account.

Time Position Orientation Groundspeed Altitude Reporting Facility
EDT Latitude Longitude Course Direction KTS MPH feet Rate Location/Type
Mon 10:03:25 PM 39.1833 -76.7667 284° West 202 232 4,200  Level Potomac TRACON
Mon 10:04:31 PM 39.2000 -76.8500 284° West 252 290 7,900 3,476 Climbing Potomac TRACON
Mon 10:05:31 PM 39.2167 -76.9500 282° West 282 325 11,500 3,050 Climbing Potomac TRACON
Mon 10:06:31 PM 39.2167 -77.0667 270° West 340 391 14,000 2,500 Climbing Potomac TRACON
Mon 10:07:31 PM 39.1833 -77.1833 250° West 367 422 16,500 2,600 Climbing Potomac TRACON
Mon 10:08:31 PM 39.1000 -77.2500 212° Southwest 390 449 19,200 2,308 Climbing Potomac TRACON
Mon 10:10:46 PM 38.8669 -77.3672 201° Southwest 412 474 24,000 2,082 Climbing Washington Center
Mon 10:11:47 PM 38.7478 -77.3936 190° South 418 481 26,000 1,475 Climbing Washington Center
Mon 10:12:48 PM 38.6306 -77.4281 193° South 428 493 27,000 492 Climbing Washington Center
Mon 10:13:49 PM 38.5211 -77.4944 205° Southwest 440 506 27,000  Level Washington Center
Mon 10:14:47 PM 38.4094 -77.5631 206° Southwest 445 512 27,000  Level Washington Center
Mon 10:15:47 PM 38.3283 -77.6719 226° Southwest 440 506 27,000 595 Level Washington Center
Mon 10:16:48 PM 38.2489 -77.7942 230° Southwest 433 498 28,200 1,686 Climbing Washington Center
Mon 10:17:48 PM 38.1694 -77.9158 230° Southwest 443 510 30,400 1,884 Climbing Washington Center
Mon 10:18:49 PM 38.0964 -78.0297 231° Southwest 448 516 32,000 814 Climbing Washington Center
Mon 10:19:46 PM 38.0125 -78.1508 229° Southwest 427 491 32,000 153 Level Washington Center
Mon 10:20:47 PM 37.9358 -78.2300 219° Southwest 413 475 32,300 1,200 Climbing Washington Center
Mon 10:21:46 PM 37.8461 -78.3189 218° Southwest 406 467 34,400 1,750 Climbing Washington Center
Mon 10:22:47 PM 37.7544 -78.4022 216° Southwest 411 473 35,800 1,525 Climbing Washington Center
Mon 10:23:48 PM 37.6522 -78.4981 217° Southwest 417 480 37,500 1,563 Climbing Washington Center
Mon 10:24:46 PM 37.5625 -78.5811 216° Southwest 417 480 38,900 1,261 Climbing Washington Center
Mon 10:25:47 PM 37.4747 -78.6667 218° Southwest 417 480 40,000 541 Climbing Washington Center
Mon 10:26:48 PM 37.3831 -78.7492 216° Southwest 417 480 40,000 -50 Level Washington Center
Mon 10:27:46 PM 37.2908 -78.8342 216° Southwest 417 480 39,900 -50 Descending Washington Center
Mon 10:28:47 PM 37.2097 -78.9089 216° Southwest 417 480 39,900 49 Level Washington Center
Mon 10:29:48 PM 37.1194 -78.9961 218° Southwest 417 480 40,000  Climbing Washington Center
Mon 10:30:46 PM 37.0297 -79.0781 216° Southwest 417 480 39,900  Descending Washington Center
Mon 10:31:48 PM 36.9375 -79.1622 222° Southwest 417 480 40,000  Climbing Washington Center
Mon 10:32:48 PM 36.8453 -79.2436 215° Southwest 417 480 39,900 -51 Descending Washington Center
Mon 10:33:46 PM 36.7483 -79.3375 218° Southwest 417 480 39,900  Level Washington Center
Mon 10:34:47 PM 36.6583 -79.4189 216° Southwest 412 474 39,900 49 Level Washington Center
Mon 10:35:48 PM 36.5681 -79.5022 217° Southwest 412 474 40,000  Climbing Washington Center
Mon 10:36:46 PM 36.4797 -79.5831 216° Southwest 412 474 39,900 -43 Descending Washington Center
Mon 10:38:08 PM 36.3525 -79.6925 215° Southwest 397 457 39,900 42 Level Atlanta Center
Mon 10:39:08 PM 36.2719 -79.7689 217° Southwest 397 457 40,000 50 Climbing Atlanta Center
Mon 10:40:08 PM 36.1828 -79.8483 216° Southwest 397 457 40,000  Level Atlanta Center
Mon 10:41:08 PM 36.0939 -79.9300 217° Southwest 397 457 40,000 -50 Level Atlanta Center
Mon 10:42:08 PM 35.9836 -80.0022 208° Southwest 397 457 39,900 -50 Descending Atlanta Center
Mon 10:43:08 PM 35.8850 -80.0533 203° Southwest 397 457 39,900 50 Level Atlanta Center
Mon 10:44:08 PM 35.7825 -80.1094 204° Southwest 397 457 40,000  Climbing Atlanta Center
Mon 10:45:08 PM 35.6797 -80.1578 201° Southwest 397 457 39,900 -200 Descending Atlanta Center
Mon 10:46:08 PM 35.5772 -80.2086 202° Southwest 404 465 39,600 -700 Descending Atlanta Center
Mon 10:47:08 PM 35.4808 -80.2617 204° Southwest 398 458 38,500 -800 Descending Atlanta Center
Mon 10:48:08 PM 35.3819 -80.3094 202° Southwest 391 450 38,000 -250 Descending Atlanta Center
Mon 10:49:08 PM 35.2772 -80.3625 202° Southwest 391 450 38,000  Level Atlanta Center
Mon 10:50:08 PM 35.1764 -80.4128 202° Southwest 391 450 38,000  Level Atlanta Center
Mon 10:52:22 PM 34.9469 -80.5247 202° Southwest 404 465 38,000  Level Jacksonville Center
Mon 10:53:22 PM 34.8458 -80.5756 202° Southwest 404 465 38,000 -50 Level Jacksonville Center
Mon 10:54:22 PM 34.7589 -80.6233 204° Southwest 393 452 37,900 -50 Descending Jacksonville Center
Mon 10:55:22 PM 34.6556 -80.6714 201° Southwest 393 452 37,900  Level Jacksonville Center
Mon 10:56:22 PM 34.5356 -80.7300 202° Southwest 410 472 37,900 50 Level Jacksonville Center
Mon 10:57:22 PM 34.4342 -80.7778 201° Southwest 400 460 38,000 50 Climbing Jacksonville Center
Mon 10:58:22 PM 34.3328 -80.8306 203° Southwest 400 460 38,000 -50 Level Jacksonville Center
Mon 10:59:22 PM 34.2439 -80.8731 202° Southwest 394 453 37,900 -50 Descending Jacksonville Center
Mon 11:00:22 PM 34.1422 -80.9231 202° Southwest 394 453 37,900  Level Jacksonville Center
Mon 11:01:22 PM 34.0389 -80.9706 201° Southwest 394 453 37,900  Level Jacksonville Center
Mon 11:02:22 PM 33.9353 -81.0203 202° Southwest 399 459 37,900 50 Level Jacksonville Center
Mon 11:03:22 PM 33.8275 -81.0675 200° South 405 466 38,000  Climbing Jacksonville Center
Mon 11:04:22 PM 33.7217 -81.1247 204° Southwest 411 473 37,900 -50 Descending Jacksonville Center
Mon 11:05:22 PM 33.6161 -81.1767 202° Southwest 411 473 37,900  Level Jacksonville Center
Mon 11:06:22 PM 33.5103 -81.2286 202° Southwest 411 473 37,900  Level Jacksonville Center
Mon 11:07:22 PM 33.4044 -81.2828 203° Southwest 416 479 37,900  Level Jacksonville Center
Mon 11:08:22 PM 33.2967 -81.3344 202° Southwest 416 479 37,900  Level Jacksonville Center
Mon 11:09:22 PM 33.1867 -81.3786 199° South 416 479 37,900  Level Jacksonville Center
Mon 11:10:22 PM 33.0675 -81.3731 178° South 412 474 37,900  Level Jacksonville Center
Mon 11:11:22 PM 32.9486 -81.3628 176° South 418 481 37,900  Level Jacksonville Center
Mon 11:12:22 PM 32.8294 -81.3550 177° South 423 487 37,900  Level Jacksonville Center
Mon 11:13:22 PM 32.7083 -81.3469 177° South 429 494 37,900 50 Level Jacksonville Center
Mon 11:14:22 PM 32.5911 -81.3392 177° South 429 494 38,000 50 Climbing Jacksonville Center
Mon 11:15:22 PM 32.4597 -81.3317 177° South 429 494 38,000 -50 Level Jacksonville Center
Mon 11:16:22 PM 32.3489 -81.3211 175° South 434 499 37,900 -50 Descending Jacksonville Center
Mon 11:17:22 PM 32.2275 -81.3111 176° South 439 505 37,900  Level Jacksonville Center
Mon 11:18:22 PM 32.1064 -81.3033 177° South 439 505 37,900  Level Jacksonville Center
Mon 11:19:22 PM 31.9831 -81.2931 176° South 445 512 37,900 50 Level Jacksonville Center
Mon 11:20:22 PM 31.8453 -81.2833 177° South 440 506 38,000 50 Climbing Jacksonville Center
Mon 11:21:22 PM 31.7261 -81.2756 177° South 440 506 38,000  Level Jacksonville Center
Mon 11:22:22 PM 31.6028 -81.2681 177° South 439 505 38,000  Level Jacksonville Center
Mon 11:23:22 PM 31.4836 -81.2578 176° South 439 505 38,000  Level Jacksonville Center
Mon 11:24:22 PM 31.3731 -81.2478 176° South 444 511 38,000 -50 Level Jacksonville Center
Mon 11:25:22 PM 31.2392 -81.2428 178° South 442 509 37,900 -50 Descending Jacksonville Center
Mon 11:26:22 PM 31.1200 -81.2350 177° South 437 503 37,900  Level Jacksonville Center
Mon 11:27:22 PM 30.9969 -81.2253 176° South 443 510 37,900  Level Jacksonville Center
Mon 11:28:22 PM 30.8736 -81.2178 177° South 443 510 37,900  Level Jacksonville Center
Mon 11:29:22 PM 30.7503 -81.2078 176° South 443 510 37,900  Level Jacksonville Center
Mon 11:30:22 PM 30.6247 -81.2003 177° South 443 510 37,900  Level Jacksonville Center
Mon 11:31:22 PM 30.5017 -81.1928 177° South 443 510 37,900  Level Jacksonville Center
Mon 11:32:22 PM 30.3742 -81.1831 176° South 443 510 37,900  Level Jacksonville Center
Mon 11:33:22 PM 30.2467 -81.1758 177° South 449 517 37,900  Level Jacksonville Center
Mon 11:34:22 PM 30.1358 -81.1681 177° South 449 517 37,900  Level Jacksonville Center
Mon 11:35:22 PM 30.0083 -81.1583 176° South 455 524 37,900  Level Jacksonville Center
Mon 11:36:22 PM 29.8789 -81.1536 178° South 460 529 37,900  Level Jacksonville Center
Mon 11:37:22 PM 29.7536 -81.1439 176° South 460 529 37,900  Level Jacksonville Center
Mon 11:38:22 PM 29.6281 -81.1389 178° South 460 529 37,900 31 Level Jacksonville Center
Mon 11:40:35 PM 29.3533 -81.1200 177° South 453 521 38,000 31 Climbing Miami Center
Mon 11:41:34 PM 29.2447 -81.0561 153° Southeast 458 527 38,000  Level Miami Center
Mon 11:42:34 PM 29.1497 -80.9528 136° Southeast 441 507 38,000  Level Miami Center
Mon 11:43:34 PM 29.0547 -80.8494 136° Southeast 453 521 38,000  Level Miami Center
Mon 11:44:35 PM 28.9617 -80.7467 136° Southeast 465 535 38,000  Level Miami Center
Mon 11:45:34 PM 28.8453 -80.6525 145° Southeast 471 542 38,000  Level Miami Center
Mon 11:46:36 PM 28.7383 -80.5919 154° Southeast 471 542 38,000  Level Miami Center
Mon 11:47:34 PM 28.6211 -80.5242 153° Southeast 471 542 38,000  Level Miami Center
Mon 11:48:34 PM 28.4917 -80.4467 152° Southeast 471 542 38,000  Level Miami Center
Mon 11:49:34 PM 28.3742 -80.3817 154° Southeast 476 548 38,000  Level Miami Center
Mon 11:50:34 PM 28.2550 -80.3119 153° Southeast 476 548 38,000  Level Miami Center
Mon 11:51:34 PM 28.1478 -80.2500 153° Southeast 476 548 38,000  Level Miami Center
Mon 11:52:35 PM 28.0283 -80.1828 154° Southeast 476 548 38,000 -150 Level Miami Center
Mon 11:53:34 PM 27.8967 -80.1061 153° Southeast 483 556 37,700 -605 Descending Miami Center
Mon 11:54:34 PM 27.7728 -80.0392 154° Southeast 488 562 36,800 -1,500 Descending Miami Center
Mon 11:55:34 PM 27.6533 -79.9703 153° Southeast 483 556 34,700 -2,900 Descending Miami Center
Mon 11:56:34 PM 27.5356 -79.9083 155° Southeast 476 548 31,000 -3,250 Descending Miami Center
Mon 11:57:34 PM 27.4136 -79.8539 158° South 471 542 28,200 -2,678 Descending Miami Center
Mon 11:58:35 PM 27.2842 -79.8481 178° South 466 536 25,600 -2,607 Descending Miami Center
Mon 11:59:36 PM 27.1528 -79.8447 179° South 471 542 22,900 -2,826 Descending Miami Center
Tue 12:00:36 AM 27.0253 -79.8439 180° South 473 544 19,900 -3,000 Descending Miami Center
Tue 12:01:34 AM 26.9125 -79.8386 178° South 448 516 17,000 -3,076 Descending Miami Center
Tue 12:02:35 AM 26.7872 -79.8378 180° South 428 493 13,800 -3,093 Descending Miami Center
Tue 12:03:11 AM 26.7225 -79.8383 180° South 392 451 12,000 -2,700 Descending Miami Center
Tue 12:03:35 AM 26.6789 -79.8350 176° South 404 465 11,100 -1,835 Descending Miami Center
Tue 12:04:36 AM 26.5742 -79.8486 187° South 391 450 9,400 -1,462 Descending Miami Center
Tue 12:05:34 AM 26.5014 -79.9281 224° Southwest 369 425 8,200 -915 Descending Miami Center
Tue 12:06:34 AM 26.4372 -79.9958 223° Southwest 343 395 7,600 -900 Descending Miami Center
Tue 12:07:34 AM 26.3794 -80.0569 223° Southwest 298 343 6,400 -1,268 Descending Miami Center
Tue 12:08:37 AM 26.3217 -80.1203 225° Southwest 298 343 5,000 -700 Descending Miami Center
Tue 12:09:34 AM 26.2769 -80.1678 224° Southwest 275 316 5,000 -51 Level Miami Center
Tue 12:10:34 AM 26.2317 -80.2197 226° Southwest 256 295 4,900 -500 Descending Miami Center
Tue 12:11:34 AM 26.1808 -80.2553 212° Southwest 233 268 4,000 -1,190 Descending Miami Center
Tue 12:12:35 AM 26.1222 -80.2606 185° South 216 249 2,500 -1,286 Descending Miami Center
Tue 12:13:40 AM 26.0789 -80.2339 151° Southeast 140 161 1,300 -1,000 Descending Miami Center
Tue 12:14:41 AM 26.0736 -80.1944 98° East 126 145 400 -885 Descending Miami Center
Tue 12:16:00 AM 26.0667 -80.1500 103° East  Level FlightAware Approximate
Tue 12:23:00 AM 26.0726 -80.1527 103° East  Level Estimated

Login

Don't have an account? Register now (free) for customized features, flight alerts, and more!